createdAt,value
2023-03-01T00:01:05.506Z,100276.41
2023-03-01T00:03:33.912Z,100267.22
2023-03-01T00:06:01.169Z,100264.38
2023-03-01T00:08:28.466Z,100269.75
2023-03-01T00:11:06.318Z,100266.03
2023-03-01T00:13:33.351Z,100263.31
2023-03-01T00:16:00.114Z,100267.00
2023-03-01T00:18:26.923Z,100265.81
2023-03-01T00:20:55.216Z,100255.78
2023-03-01T00:23:22.583Z,100271.41
2023-03-01T00:25:49.544Z,100266.41
2023-03-01T00:28:17.136Z,100258.66
2023-03-01T00:30:43.957Z,100260.06
2023-03-01T00:33:10.637Z,100264.78
2023-03-01T00:35:37.762Z,100257.22
2023-03-01T00:38:05.098Z,100256.22
2023-03-01T00:40:33.634Z,100256.03
2023-03-01T00:43:00.242Z,100243.91
2023-03-01T00:45:27.213Z,100252.38
2023-03-01T00:47:54.316Z,100251.50
2023-03-01T00:50:21.494Z,100250.59
2023-03-01T00:52:48.105Z,100256.75
2023-03-01T00:55:14.929Z,100249.03
2023-03-01T00:57:41.657Z,100246.69
2023-03-01T01:00:10.724Z,100248.97
2023-03-01T01:02:38.228Z,100257.56
2023-03-01T01:05:05.807Z,100253.94
2023-03-01T01:07:32.409Z,100250.72
2023-03-01T01:09:59.150Z,100256.09
2023-03-01T01:12:25.817Z,100255.41
2023-03-01T01:14:52.634Z,100247.91
2023-03-01T01:17:19.254Z,100250.50
2023-03-01T01:19:45.905Z,100240.19
2023-03-01T01:22:12.634Z,100245.19
2023-03-01T01:24:39.255Z,100236.72
2023-03-01T01:27:05.904Z,100234.31
2023-03-01T01:29:32.527Z,100238.03
2023-03-01T01:31:59.204Z,100220.03
2023-03-01T01:34:25.920Z,100215.81
2023-03-01T01:36:56.722Z,100209.84
2023-03-01T01:39:23.690Z,100219.53
2023-03-01T01:41:50.941Z,100219.00
2023-03-01T01:44:24.587Z,100210.53
2023-03-01T01:47:18.447Z,100214.59
2023-03-01T01:49:48.783Z,100208.13
2023-03-01T01:52:19.549Z,100211.31
2023-03-01T01:54:51.983Z,100204.38
2023-03-01T01:57:22.271Z,100203.41
2023-03-01T01:59:56.567Z,100202.50
2023-03-01T02:02:23.379Z,100195.56
2023-03-01T02:04:55.477Z,100186.97
2023-03-01T02:07:24.064Z,100192.50
2023-03-01T02:09:53.569Z,100186.09
2023-03-01T02:12:22.099Z,100192.06
2023-03-01T02:14:48.731Z,100188.81
2023-03-01T02:17:17.519Z,100192.91
2023-03-01T02:20:30.712Z,100194.03
2023-03-01T02:22:57.347Z,100193.91
2023-03-01T02:25:47.317Z,100193.69
2023-03-01T02:28:38.450Z,100190.00
2023-03-01T02:31:26.520Z,100183.22
2023-03-01T02:33:54.367Z,100168.22
2023-03-01T02:36:24.491Z,100173.66
2023-03-01T02:38:53.416Z,100172.22
2023-03-01T02:41:21.469Z,100163.94
2023-03-01T02:43:48.420Z,100164.66
2023-03-01T02:46:25.393Z,100158.16
2023-03-01T02:48:55.017Z,100158.34
2023-03-01T02:52:20.382Z,100160.28
2023-03-01T02:55:05.494Z,100161.06
2023-03-01T02:57:33.569Z,100165.66
2023-03-01T03:00:08.280Z,100166.38
2023-03-01T03:02:38.618Z,100162.19
2023-03-01T03:05:09.481Z,100156.31
2023-03-01T03:07:38.404Z,100158.69
2023-03-01T03:10:09.059Z,100159.53
2023-03-01T03:12:35.684Z,100157.69
2023-03-01T03:15:02.374Z,100155.16
2023-03-01T03:17:29.013Z,100157.06
2023-03-01T03:19:55.959Z,100151.84
2023-03-01T03:22:22.589Z,100159.84
2023-03-01T03:24:49.337Z,100149.47
2023-03-01T03:27:15.934Z,100157.13
2023-03-01T03:29:42.594Z,100148.53
2023-03-01T03:32:09.187Z,100151.88
2023-03-01T03:34:35.836Z,100141.63
2023-03-01T03:37:02.506Z,100139.34
2023-03-01T03:39:30.114Z,100136.34
2023-03-01T03:41:56.820Z,100139.16
2023-03-01T03:44:23.453Z,100132.38
2023-03-01T03:46:50.259Z,100145.84
2023-03-01T03:49:16.972Z,100134.06
2023-03-01T03:51:43.529Z,100127.78
2023-03-01T03:54:10.236Z,100131.28
2023-03-01T03:56:37.650Z,100138.00
2023-03-01T03:59:07.006Z,100134.75
2023-03-01T04:01:33.710Z,100118.44
2023-03-01T04:04:05.360Z,100127.69
2023-03-01T04:06:32.307Z,100116.09
2023-03-01T04:09:01.406Z,100115.69
2023-03-01T04:11:28.112Z,100114.81
2023-03-01T04:13:56.855Z,100123.44
2023-03-01T04:16:24.717Z,100117.66
2023-03-01T04:18:51.893Z,100111.66
2023-03-01T04:21:18.541Z,100120.09
2023-03-01T04:23:45.258Z,100119.38
2023-03-01T04:26:11.990Z,100122.19
2023-03-01T04:28:41.605Z,100116.06
2023-03-01T04:31:17.878Z,100121.28
2023-03-01T04:33:46.566Z,100120.91
2023-03-01T04:36:14.675Z,100118.47
2023-03-01T04:38:42.149Z,100117.97
2023-03-01T04:41:12.239Z,100115.50
2023-03-01T04:43:39.229Z,100107.53
2023-03-01T04:46:10.621Z,100116.19
2023-03-01T04:48:38.424Z,100112.81
2023-03-01T04:51:06.912Z,100112.56
2023-03-01T04:53:34.124Z,100114.38
2023-03-01T04:56:00.684Z,100105.78
2023-03-01T04:58:28.181Z,100114.59
2023-03-01T05:00:54.947Z,100112.03
2023-03-01T05:03:22.360Z,100108.69
2023-03-01T05:05:51.509Z,100112.75
2023-03-01T05:08:18.695Z,100111.91
2023-03-01T05:10:47.467Z,100104.41
2023-03-01T05:13:14.780Z,100103.66
2023-03-01T05:15:41.448Z,100107.09
2023-03-01T05:18:12.478Z,100101.06
2023-03-01T05:20:39.749Z,100101.38
2023-03-01T05:23:06.907Z,100103.97
2023-03-01T05:25:34.872Z,100107.00
2023-03-01T05:28:05.585Z,100100.38
2023-03-01T05:30:34.284Z,100098.47
2023-03-01T05:33:01.920Z,100093.56
2023-03-01T05:35:29.279Z,100090.63
2023-03-01T05:37:55.921Z,100083.00
2023-03-01T05:40:25.249Z,100095.06
2023-03-01T05:42:55.717Z,100092.31
2023-03-01T05:45:24.085Z,100092.28
2023-03-01T05:47:51.434Z,100096.81
2023-03-01T05:50:20.845Z,100089.44
2023-03-01T05:52:49.637Z,100090.97
2023-03-01T05:55:21.098Z,100097.56
2023-03-01T05:57:48.206Z,100101.97
2023-03-01T06:00:16.922Z,100104.41
2023-03-01T06:02:43.542Z,100099.09
2023-03-01T06:05:11.593Z,100089.47
2023-03-01T06:07:38.360Z,100092.16
2023-03-01T06:10:06.779Z,100101.88
2023-03-01T06:12:34.721Z,100099.28
2023-03-01T06:15:01.968Z,100099.38
2023-03-01T06:17:36.780Z,100100.16
2023-03-01T06:20:04.371Z,100097.59
2023-03-01T06:22:30.989Z,100099.00
2023-03-01T06:24:57.660Z,100094.84
2023-03-01T06:27:24.455Z,100093.25
2023-03-01T06:29:54.617Z,100091.72
2023-03-01T06:32:21.995Z,100089.00
2023-03-01T06:34:48.760Z,100090.69
2023-03-01T06:37:15.717Z,100088.88
2023-03-01T06:39:42.557Z,100091.44
2023-03-01T06:42:11.188Z,100094.31
2023-03-01T06:44:38.421Z,100091.28
2023-03-01T06:47:05.477Z,100090.47
2023-03-01T06:49:32.123Z,100081.13
2023-03-01T06:51:58.796Z,100083.72
2023-03-01T06:54:27.036Z,100086.00
2023-03-01T06:56:54.512Z,100086.72
2023-03-01T06:59:21.708Z,100093.38
2023-03-01T07:01:48.613Z,100092.31
2023-03-01T07:04:15.475Z,100089.31
2023-03-01T07:06:42.146Z,100095.66
2023-03-01T07:09:09.024Z,100100.69
2023-03-01T07:11:35.634Z,100095.31
2023-03-01T07:14:02.311Z,100104.34
2023-03-01T07:16:29.098Z,100099.03
2023-03-01T07:18:55.873Z,100105.34
2023-03-01T07:21:22.569Z,100097.28
2023-03-01T07:23:50.162Z,100096.91
2023-03-01T07:26:16.870Z,100095.91
2023-03-01T07:28:43.407Z,100104.34
2023-03-01T07:31:10.102Z,100094.47
2023-03-01T07:33:36.723Z,100100.19
2023-03-01T07:36:05.270Z,100098.09
2023-03-01T07:38:32.502Z,100098.84
2023-03-01T07:41:04.384Z,100092.56
2023-03-01T07:43:31.688Z,100089.78
2023-03-01T07:46:05.491Z,100092.84
2023-03-01T07:48:32.548Z,100094.28
2023-03-01T07:51:00.866Z,100089.53
2023-03-01T07:53:28.332Z,100083.97
2023-03-01T07:56:06.840Z,100090.78
2023-03-01T07:58:36.192Z,100093.81
2023-03-01T08:01:04.415Z,100094.78
2023-03-01T08:03:31.042Z,100093.78
2023-03-01T08:06:00.891Z,100092.16
2023-03-01T08:08:27.703Z,100087.25
2023-03-01T08:10:58.086Z,100085.13
2023-03-01T08:13:25.137Z,100091.41
2023-03-01T08:15:52.250Z,100082.56
2023-03-01T08:18:19.944Z,100090.78
2023-03-01T08:20:47.307Z,100085.72
2023-03-01T08:23:14.044Z,100083.53
2023-03-01T08:25:41.006Z,100084.78
2023-03-01T08:28:07.551Z,100082.59
2023-03-01T08:30:34.398Z,100086.47
2023-03-01T08:33:01.280Z,100077.03
2023-03-01T08:35:28.328Z,100083.97
2023-03-01T08:37:55.160Z,100077.94
2023-03-01T08:40:21.871Z,100082.50
2023-03-01T08:42:48.615Z,100079.47
2023-03-01T08:45:19.781Z,100081.47
2023-03-01T08:47:46.633Z,100081.16
2023-03-01T08:50:13.424Z,100080.06
2023-03-01T08:52:40.137Z,100072.13
2023-03-01T08:55:07.973Z,100087.06
2023-03-01T08:57:35.707Z,100062.47
2023-03-01T09:00:02.785Z,100059.16
2023-03-01T09:02:29.577Z,100053.53
2023-03-01T09:04:56.315Z,100057.38
2023-03-01T09:07:22.977Z,100053.31
2023-03-01T09:09:49.625Z,100046.81
2023-03-01T09:12:16.321Z,100051.75
2023-03-01T09:14:43.279Z,100038.91
2023-03-01T09:17:10.044Z,100050.91
2023-03-01T09:19:36.777Z,100049.22
2023-03-01T09:22:05.250Z,100045.47
2023-03-01T09:24:31.959Z,100041.47
2023-03-01T09:26:58.752Z,100047.72
2023-03-01T09:29:26.014Z,100041.41
2023-03-01T09:31:52.804Z,100039.63
2023-03-01T09:34:24.435Z,100046.59
2023-03-01T09:36:52.404Z,100034.06
2023-03-01T09:39:19.265Z,100033.78
2023-03-01T09:41:48.009Z,100031.88
2023-03-01T09:44:41.644Z,100032.50
2023-03-01T09:47:18.962Z,100020.00
2023-03-01T09:49:54.637Z,100017.34
2023-03-01T09:52:35.870Z,100019.88
2023-03-01T09:55:02.866Z,100011.47
2023-03-01T09:57:44.526Z,100025.00
2023-03-01T10:00:40.893Z,100018.69
2023-03-01T10:03:40.858Z,100019.88
2023-03-01T10:06:33.969Z,100022.53
2023-03-01T10:09:11.261Z,100022.53
2023-03-01T10:11:41.116Z,100016.88
2023-03-01T10:14:52.404Z,100019.56
2023-03-01T10:17:27.358Z,100008.84
2023-03-01T10:19:54.204Z,100000.75
2023-03-01T10:22:30.659Z,99998.56
2023-03-01T10:25:00.029Z,100000.09
2023-03-01T10:27:31.411Z,99992.06
2023-03-01T10:30:11.069Z,99997.25
2023-03-01T10:32:38.188Z,99983.56
2023-03-01T10:35:38.809Z,99987.25
2023-03-01T10:38:14.666Z,99987.63
2023-03-01T10:40:58.326Z,99987.81
2023-03-01T10:43:26.859Z,99988.69
2023-03-01T10:45:54.037Z,99990.84
2023-03-01T10:48:27.406Z,99985.91
2023-03-01T10:51:00.139Z,99983.13
2023-03-01T10:53:37.106Z,99983.13
2023-03-01T10:56:07.436Z,99973.72
2023-03-01T10:58:35.754Z,99976.13
2023-03-01T11:01:08.195Z,99968.13
2023-03-01T11:03:39.935Z,99973.72
2023-03-01T11:06:27.449Z,99964.53
2023-03-01T11:08:55.149Z,99961.31
2023-03-01T11:11:34.530Z,99959.66
2023-03-01T11:14:16.142Z,99955.84
2023-03-01T11:17:05.340Z,99957.13
2023-03-01T11:19:32.386Z,99945.44
2023-03-01T11:22:29.146Z,99951.81
2023-03-01T11:25:08.752Z,99956.31
2023-03-01T11:27:40.339Z,99946.59
2023-03-01T11:30:17.317Z,99953.38
2023-03-01T11:32:47.888Z,99946.34
2023-03-01T11:35:25.580Z,99954.00
2023-03-01T11:38:33.208Z,99955.88
2023-03-01T11:41:09.139Z,99947.72
2023-03-01T11:44:25.088Z,99957.75
2023-03-01T11:47:28.609Z,99945.81
2023-03-01T11:50:26.843Z,99933.94
2023-03-01T11:53:07.342Z,99941.44
2023-03-01T11:55:38.410Z,99953.06
2023-03-01T11:58:41.344Z,99937.47
2023-03-01T12:01:56.293Z,99943.50
2023-03-01T12:04:34.198Z,99932.53
2023-03-01T12:07:02.438Z,99935.63
2023-03-01T12:09:50.043Z,99928.91
2023-03-01T12:12:29.478Z,99934.13
2023-03-01T12:15:31.634Z,99915.66
2023-03-01T12:18:26.080Z,99923.63
2023-03-01T12:21:01.254Z,99918.03
2023-03-01T12:23:46.767Z,99907.59
2023-03-01T12:26:34.651Z,99910.88
2023-03-01T12:29:27.565Z,99900.06
2023-03-01T12:32:15.375Z,99898.22
2023-03-01T12:34:51.131Z,99892.91
2023-03-01T12:37:35.525Z,99889.25
2023-03-01T12:40:43.405Z,99872.66
2023-03-01T12:44:06.033Z,99868.25
2023-03-01T12:46:57.588Z,99860.47
2023-03-01T12:49:30.148Z,99865.22
2023-03-01T12:52:24.784Z,99863.56
2023-03-01T12:54:53.056Z,99860.41
2023-03-01T12:57:28.139Z,99857.47
2023-03-01T13:00:27.520Z,99856.81
2023-03-01T13:03:20.537Z,99856.22
2023-03-01T13:06:07.211Z,99848.41
2023-03-01T13:09:03.122Z,99856.00
2023-03-01T13:11:29.928Z,99856.47
2023-03-01T13:14:27.040Z,99857.13
2023-03-01T13:16:54.745Z,99858.78
2023-03-01T13:19:25.890Z,99853.56
2023-03-01T13:21:57.248Z,99855.31
2023-03-01T13:24:43.367Z,99855.69
2023-03-01T13:27:23.939Z,99844.44
2023-03-01T13:29:56.287Z,99843.69
2023-03-01T13:32:43.523Z,99841.50
2023-03-01T13:35:44.730Z,99844.53
2023-03-01T13:38:39.611Z,99847.78
2023-03-01T13:41:06.299Z,99832.44
2023-03-01T13:43:36.075Z,99831.72
2023-03-01T13:46:09.681Z,99828.69
2023-03-01T13:48:36.362Z,99819.97
2023-03-01T13:51:09.744Z,99819.63
2023-03-01T13:53:38.583Z,99807.13
2023-03-01T13:56:21.404Z,99808.81
2023-03-01T13:58:53.922Z,99797.47
2023-03-01T14:01:28.198Z,99801.91
2023-03-01T14:03:55.527Z,99788.97
2023-03-01T14:06:27.757Z,99785.81
2023-03-01T14:09:20.231Z,99790.56
2023-03-01T14:12:08.573Z,99778.84
2023-03-01T14:14:48.708Z,99779.78
2023-03-01T14:17:48.090Z,99765.66
2023-03-01T14:20:43.154Z,99767.69
2023-03-01T14:23:14.269Z,99763.41
2023-03-01T14:25:49.012Z,99763.25
2023-03-01T14:28:18.789Z,99758.75
2023-03-01T14:30:50.926Z,99758.25
2023-03-01T14:33:42.697Z,99761.31
2023-03-01T14:36:14.185Z,99762.97
2023-03-01T14:38:45.863Z,99752.03
2023-03-01T14:41:17.810Z,99760.09
2023-03-01T14:43:54.212Z,99756.47
2023-03-01T14:46:42.160Z,99764.28
2023-03-01T14:49:21.255Z,99762.63
2023-03-01T14:51:55.290Z,99761.69
2023-03-01T14:54:26.846Z,99756.47
2023-03-01T14:56:55.508Z,99758.25
2023-03-01T14:59:25.663Z,99761.78
2023-03-01T15:01:57.214Z,99763.69
2023-03-01T15:04:25.032Z,99760.56
2023-03-01T15:06:53.591Z,99748.50
2023-03-01T15:09:20.697Z,99746.47
2023-03-01T15:11:47.345Z,99758.25
2023-03-01T15:14:29.375Z,99756.34
2023-03-01T15:16:56.873Z,99747.91
2023-03-01T15:19:25.277Z,99748.44
2023-03-01T15:21:52.290Z,99746.94
2023-03-01T15:24:25.805Z,99756.34
2023-03-01T15:27:03.271Z,99754.38
2023-03-01T15:29:31.377Z,99767.31
2023-03-01T15:32:07.195Z,99767.31
2023-03-01T15:34:37.906Z,99762.38
2023-03-01T15:37:06.892Z,99762.94
2023-03-01T15:39:44.583Z,99769.25
2023-03-01T15:42:37.956Z,99774.53
2023-03-01T15:45:31.788Z,99761.66
2023-03-01T15:48:02.627Z,99750.56
2023-03-01T15:50:31.509Z,99765.38
2023-03-01T15:52:59.571Z,99762.47
2023-03-01T15:55:30.918Z,99771.16
2023-03-01T15:58:19.486Z,99768.81
2023-03-01T16:00:59.756Z,99779.47
2023-03-01T16:03:27.709Z,99771.66
2023-03-01T16:05:54.885Z,99776.44
2023-03-01T16:08:21.666Z,99780.16
2023-03-01T16:10:51.064Z,99786.09
2023-03-01T16:13:18.510Z,99782.91
2023-03-01T16:15:45.187Z,99779.13
2023-03-01T16:18:12.959Z,99779.03
2023-03-01T16:20:40.320Z,99774.97
2023-03-01T16:23:08.745Z,99774.97
2023-03-01T16:25:36.417Z,99766.06
2023-03-01T16:28:06.145Z,99765.34
2023-03-01T16:30:33.384Z,99771.03
2023-03-01T16:33:00.820Z,99762.16
2023-03-01T16:35:27.578Z,99761.28
2023-03-01T16:37:55.047Z,99765.00
2023-03-01T16:40:27.959Z,99764.78
2023-03-01T16:42:56.479Z,99775.25
2023-03-01T16:45:24.643Z,99767.84
2023-03-01T16:47:55.090Z,99770.56
2023-03-01T16:50:22.952Z,99757.19
2023-03-01T16:52:49.710Z,99754.94
2023-03-01T16:55:16.440Z,99753.44
2023-03-01T16:57:43.058Z,99750.56
2023-03-01T17:00:12.060Z,99759.31
2023-03-01T17:02:38.811Z,99747.22
2023-03-01T17:05:06.321Z,99752.56
2023-03-01T17:07:34.481Z,99764.00
2023-03-01T17:10:02.153Z,99757.09
2023-03-01T17:12:29.111Z,99764.00
2023-03-01T17:14:55.758Z,99768.88
2023-03-01T17:17:22.911Z,99771.16
2023-03-01T17:19:49.564Z,99762.28
2023-03-01T17:22:17.729Z,99768.59
2023-03-01T17:24:44.938Z,99765.38
2023-03-01T17:27:12.888Z,99775.69
2023-03-01T17:29:40.773Z,99771.16
2023-03-01T17:32:08.718Z,99761.44
2023-03-01T17:34:35.578Z,99774.41
2023-03-01T17:37:02.218Z,99763.25
2023-03-01T17:39:36.290Z,99763.25
2023-03-01T17:42:05.331Z,99772.34
2023-03-01T17:44:34.640Z,99779.31
2023-03-01T17:47:03.345Z,99786.09
2023-03-01T17:49:30.497Z,99784.13
2023-03-01T17:51:57.320Z,99781.66
2023-03-01T17:54:24.060Z,99782.66
2023-03-01T17:56:51.216Z,99790.16
2023-03-01T17:59:18.095Z,99792.47
2023-03-01T18:01:45.158Z,99792.81
2023-03-01T18:04:12.046Z,99796.09
2023-03-01T18:06:41.147Z,99790.16
2023-03-01T18:09:08.788Z,99787.34
2023-03-01T18:11:36.029Z,99786.66
2023-03-01T18:14:03.042Z,99780.88
2023-03-01T18:16:32.414Z,99787.03
2023-03-01T18:19:00.199Z,99794.34
2023-03-01T18:21:28.123Z,99795.16
2023-03-01T18:23:54.932Z,99791.75
2023-03-01T18:26:22.812Z,99797.19
2023-03-01T18:28:51.793Z,99787.72
2023-03-01T18:31:22.465Z,99795.81
2023-03-01T18:33:50.200Z,99789.34
2023-03-01T18:36:25.429Z,99787.88
2023-03-01T18:38:54.063Z,99784.06
2023-03-01T18:41:20.878Z,99789.72
2023-03-01T18:43:47.713Z,99784.53
2023-03-01T18:46:14.768Z,99792.00
2023-03-01T18:48:41.417Z,99792.66
2023-03-01T18:51:13.834Z,99784.84
2023-03-01T18:53:40.654Z,99786.94
2023-03-01T18:56:08.486Z,99785.50
2023-03-01T18:58:35.414Z,99785.22
2023-03-01T19:01:04.433Z,99793.22
2023-03-01T19:03:31.541Z,99790.94
2023-03-01T19:06:01.153Z,99796.88
2023-03-01T19:08:30.748Z,99792.81
2023-03-01T19:11:02.459Z,99783.78
2023-03-01T19:13:29.650Z,99784.84
2023-03-01T19:16:28.177Z,99782.31
2023-03-01T19:19:00.204Z,99784.28
2023-03-01T19:21:28.708Z,99778.09
2023-03-01T19:23:56.652Z,99781.44
2023-03-01T19:26:25.686Z,99778.91
2023-03-01T19:28:52.603Z,99779.31
2023-03-01T19:31:24.345Z,99777.06
2023-03-01T19:33:52.943Z,99774.53
2023-03-01T19:36:22.202Z,99769.72
2023-03-01T19:38:49.038Z,99770.59
2023-03-01T19:41:18.477Z,99764.16
2023-03-01T19:43:46.012Z,99762.53
2023-03-01T19:46:13.826Z,99767.34
2023-03-01T19:48:41.217Z,99759.44
2023-03-01T19:51:08.742Z,99762.91
2023-03-01T19:53:35.455Z,99756.44
2023-03-01T19:56:02.525Z,99759.13
2023-03-01T19:58:30.694Z,99761.44
2023-03-01T20:01:00.940Z,99764.72
2023-03-01T20:03:33.778Z,99760.34
2023-03-01T20:06:02.846Z,99760.34
2023-03-01T20:08:31.373Z,99755.50
2023-03-01T20:11:06.496Z,99755.78
2023-03-01T20:13:33.688Z,99755.91
2023-03-01T20:16:00.612Z,99756.31
2023-03-01T20:18:28.168Z,99752.69
2023-03-01T20:20:55.009Z,99759.19
2023-03-01T20:23:21.697Z,99758.00
2023-03-01T20:25:51.403Z,99760.59
2023-03-01T20:28:19.516Z,99755.63
2023-03-01T20:30:46.553Z,99760.81
2023-03-01T20:33:13.293Z,99756.88
2023-03-01T20:35:43.353Z,99758.28
2023-03-01T20:38:10.284Z,99756.19
2023-03-01T20:40:38.067Z,99746.06
2023-03-01T20:43:05.369Z,99749.06
2023-03-01T20:45:32.585Z,99751.78
2023-03-01T20:48:02.246Z,99750.75
2023-03-01T20:50:29.403Z,99751.72
2023-03-01T20:52:56.521Z,99745.78
2023-03-01T20:55:23.197Z,99738.44
2023-03-01T20:57:50.040Z,99752.94
2023-03-01T21:00:17.216Z,99747.69
2023-03-01T21:02:44.251Z,99722.56
2023-03-01T21:05:10.855Z,99743.56
2023-03-01T21:07:37.648Z,99745.63
2023-03-01T21:10:05.645Z,99739.63
2023-03-01T21:12:36.442Z,99744.13
2023-03-01T21:15:04.004Z,99737.19
2023-03-01T21:17:30.990Z,99736.44
2023-03-01T21:19:57.837Z,99737.13
2023-03-01T21:22:24.798Z,99743.56
2023-03-01T21:24:51.889Z,99733.03
2023-03-01T21:27:19.073Z,99729.22
2023-03-01T21:29:46.618Z,99735.97
2023-03-01T21:32:14.372Z,99739.69
2023-03-01T21:34:41.847Z,99730.81
2023-03-01T21:37:10.605Z,99737.88
2023-03-01T21:39:37.676Z,99730.31
2023-03-01T21:42:05.263Z,99727.78
2023-03-01T21:44:33.008Z,99728.66
2023-03-01T21:46:59.722Z,99732.41
2023-03-01T21:49:27.061Z,99728.44
2023-03-01T21:51:53.766Z,99731.59
2023-03-01T21:54:21.477Z,99719.34
2023-03-01T21:56:49.485Z,99718.06
2023-03-01T21:59:19.828Z,99725.03
2023-03-01T22:01:47.396Z,99731.09
2023-03-01T22:04:15.112Z,99730.63
2023-03-01T22:06:44.814Z,99726.63
2023-03-01T22:09:23.073Z,99738.50
2023-03-01T22:11:54.247Z,99739.41
2023-03-01T22:14:21.811Z,99737.47
2023-03-01T22:16:51.610Z,99738.56
2023-03-01T22:19:19.216Z,99738.16
2023-03-01T22:21:50.172Z,99742.88
2023-03-01T22:24:18.990Z,99739.00
2023-03-01T22:26:47.323Z,99733.25
2023-03-01T22:29:17.453Z,99728.78
2023-03-01T22:31:44.646Z,99737.75
2023-03-01T22:34:12.182Z,99736.34
2023-03-01T22:36:42.211Z,99731.19
2023-03-01T22:39:09.303Z,99731.66
2023-03-01T22:41:45.179Z,99734.56
2023-03-01T22:44:14.215Z,99728.19
2023-03-01T22:46:41.115Z,99719.56
2023-03-01T22:49:07.874Z,99727.53
2023-03-01T22:51:36.634Z,99726.00
2023-03-01T22:54:04.053Z,99727.41
2023-03-01T22:56:33.091Z,99723.75
2023-03-01T22:59:02.631Z,99717.59
2023-03-01T23:01:30.707Z,99717.72
2023-03-01T23:03:57.629Z,99717.59
2023-03-01T23:06:24.693Z,99721.72
2023-03-01T23:08:53.702Z,99712.16
2023-03-01T23:11:21.463Z,99718.94
2023-03-01T23:13:48.496Z,99717.72
2023-03-01T23:16:15.750Z,99711.00
2023-03-01T23:18:42.578Z,99716.06
2023-03-01T23:21:17.115Z,99720.53
2023-03-01T23:23:44.446Z,99714.50
2023-03-01T23:26:11.120Z,99705.81
2023-03-01T23:28:41.210Z,99708.28
2023-03-01T23:31:10.977Z,99710.47
2023-03-01T23:33:40.651Z,99699.91
2023-03-01T23:36:18.658Z,99702.84
2023-03-01T23:38:46.885Z,99702.41
2023-03-01T23:41:15.884Z,99695.63
2023-03-01T23:43:46.887Z,99696.25
2023-03-01T23:46:14.664Z,99694.44
2023-03-01T23:48:42.548Z,99695.34
2023-03-01T23:51:09.749Z,99690.66
2023-03-01T23:53:38.657Z,99693.03
2023-03-01T23:56:05.932Z,99695.53
2023-03-01T23:58:32.810Z,99700.84
